createdAt,value
2022-10-07T00:00:10.597Z,1.40
2022-10-07T00:02:38.893Z,2.20
2022-10-07T00:05:07.284Z,2.10
2022-10-07T00:07:35.492Z,2.73
2022-10-07T00:10:03.920Z,2.30
2022-10-07T00:12:32.172Z,2.23
2022-10-07T00:15:01.845Z,2.40
2022-10-07T00:17:30.135Z,2.53
2022-10-07T00:19:58.345Z,1.80
2022-10-07T00:22:26.566Z,1.83
2022-10-07T00:24:54.889Z,2.33
2022-10-07T00:27:23.105Z,1.70
2022-10-07T00:29:51.508Z,2.10
2022-10-07T00:32:21.096Z,2.30
2022-10-07T00:34:49.330Z,3.30
2022-10-07T00:37:17.508Z,2.60
2022-10-07T00:39:46.458Z,2.80
2022-10-07T00:42:15.436Z,2.20
2022-10-07T00:44:44.464Z,2.20
2022-10-07T00:47:14.509Z,2.67
2022-10-07T00:49:47.166Z,2.27
2022-10-07T00:52:16.281Z,2.57
2022-10-07T00:54:45.272Z,2.37
2022-10-07T00:57:13.759Z,2.20
2022-10-07T00:59:42.011Z,1.90
2022-10-07T01:02:10.504Z,3.60
2022-10-07T01:04:39.123Z,2.17
2022-10-07T01:07:08.754Z,2.43
2022-10-07T01:09:37.049Z,2.20
2022-10-07T01:12:08.618Z,1.70
2022-10-07T01:14:43.985Z,1.97
2022-10-07T01:17:14.928Z,2.60
2022-10-07T01:19:52.144Z,1.57
2022-10-07T01:22:27.691Z,2.00
2022-10-07T01:25:04.000Z,2.13
2022-10-07T01:27:36.797Z,2.70
2022-10-07T01:30:06.742Z,2.20
2022-10-07T01:32:37.299Z,2.50
2022-10-07T01:35:07.097Z,2.10
2022-10-07T01:37:37.586Z,2.10
2022-10-07T01:40:08.044Z,1.73
2022-10-07T01:42:38.129Z,2.80
2022-10-07T01:45:07.463Z,2.27
2022-10-07T01:47:35.730Z,1.50
2022-10-07T01:50:03.937Z,1.87
2022-10-07T01:52:40.910Z,1.43
2022-10-07T01:55:16.665Z,1.97
2022-10-07T01:57:50.868Z,2.07
2022-10-07T02:00:19.304Z,1.60
2022-10-07T02:02:56.564Z,1.60
2022-10-07T02:05:27.517Z,2.40
2022-10-07T02:08:02.228Z,2.00
2022-10-07T02:10:32.694Z,2.67
2022-10-07T02:13:08.939Z,2.60
2022-10-07T02:15:40.303Z,2.03
2022-10-07T02:18:10.295Z,2.33
2022-10-07T02:20:39.883Z,1.70
2022-10-07T02:23:09.198Z,1.87
2022-10-07T02:25:39.749Z,2.53
2022-10-07T02:28:11.067Z,1.70
2022-10-07T02:30:39.602Z,1.87
2022-10-07T02:33:09.749Z,1.77
2022-10-07T02:35:41.965Z,2.43
2022-10-07T02:38:12.815Z,2.00
2022-10-07T02:40:43.686Z,2.13
2022-10-07T02:43:16.746Z,2.17
2022-10-07T02:45:46.588Z,1.77
2022-10-07T02:48:18.933Z,1.80
2022-10-07T02:50:50.011Z,1.60
2022-10-07T02:53:18.370Z,2.30
2022-10-07T02:55:46.944Z,2.07
2022-10-07T02:58:17.722Z,1.87
2022-10-07T03:00:48.122Z,2.07
2022-10-07T03:03:16.385Z,2.17
2022-10-07T03:05:44.713Z,1.70
2022-10-07T03:08:13.409Z,2.43
2022-10-07T03:10:42.658Z,2.00
2022-10-07T03:13:10.880Z,2.87
2022-10-07T03:15:42.629Z,2.23
2022-10-07T03:18:26.437Z,1.77
2022-10-07T03:20:55.585Z,2.17
2022-10-07T03:23:24.493Z,2.03
2022-10-07T03:25:53.529Z,2.33
2022-10-07T03:28:22.198Z,1.60
2022-10-07T03:30:52.294Z,2.80
2022-10-07T03:33:24.262Z,2.03
2022-10-07T03:35:52.458Z,2.33
2022-10-07T03:38:21.849Z,2.20
2022-10-07T03:40:50.271Z,2.10
2022-10-07T03:43:18.483Z,2.10
2022-10-07T03:45:47.184Z,2.37
2022-10-07T03:48:16.786Z,3.43
2022-10-07T03:50:49.725Z,1.80
2022-10-07T03:53:18.229Z,3.27
2022-10-07T03:55:46.704Z,1.73
2022-10-07T03:58:14.980Z,2.17
2022-10-07T04:00:43.174Z,2.13
2022-10-07T04:03:11.647Z,1.90
2022-10-07T04:05:41.217Z,1.70
2022-10-07T04:08:09.832Z,2.00
2022-10-07T04:10:38.013Z,1.33
2022-10-07T04:13:06.182Z,2.53
2022-10-07T04:15:34.517Z,1.27
2022-10-07T04:18:02.697Z,1.93
2022-10-07T04:20:30.899Z,2.50
2022-10-07T04:23:00.459Z,2.20
2022-10-07T04:25:35.103Z,1.77
2022-10-07T04:28:04.164Z,2.37
2022-10-07T04:30:34.743Z,1.90
2022-10-07T04:33:04.104Z,2.47
2022-10-07T04:35:32.632Z,2.00
2022-10-07T04:38:02.205Z,1.80
2022-10-07T04:40:31.037Z,1.90
2022-10-07T04:43:16.929Z,2.43
2022-10-07T04:45:45.136Z,1.83
2022-10-07T04:48:13.329Z,2.47
2022-10-07T04:50:41.818Z,2.90
2022-10-07T04:53:14.283Z,2.43
2022-10-07T04:55:43.740Z,1.47
2022-10-07T04:58:12.605Z,2.40
2022-10-07T05:00:44.927Z,3.10
2022-10-07T05:03:13.303Z,1.60
2022-10-07T05:05:45.489Z,2.87
2022-10-07T05:08:15.286Z,2.00
2022-10-07T05:10:44.046Z,1.93
2022-10-07T05:13:13.630Z,1.80
2022-10-07T05:15:49.666Z,2.30
2022-10-07T05:18:18.768Z,1.70
2022-10-07T05:20:47.611Z,2.20
2022-10-07T05:23:17.805Z,2.50
2022-10-07T05:25:46.046Z,2.60
2022-10-07T05:28:15.196Z,2.07
2022-10-07T05:30:43.841Z,1.73
2022-10-07T05:33:12.178Z,3.20
2022-10-07T05:35:40.465Z,2.10
2022-10-07T05:38:08.952Z,1.80
2022-10-07T05:40:38.588Z,1.97
2022-10-07T05:43:07.363Z,1.97
2022-10-07T05:45:35.564Z,1.97
2022-10-07T05:48:05.327Z,2.10
2022-10-07T05:50:33.518Z,2.10
2022-10-07T05:53:01.697Z,3.63
2022-10-07T05:55:29.937Z,2.30
2022-10-07T05:58:00.509Z,2.23
2022-10-07T06:00:28.991Z,2.50
2022-10-07T06:02:57.295Z,2.67
2022-10-07T06:05:25.613Z,1.87
2022-10-07T06:07:56.560Z,2.50
2022-10-07T06:10:41.458Z,3.47
2022-10-07T06:13:11.458Z,2.23
2022-10-07T06:15:39.677Z,2.57
2022-10-07T06:18:07.966Z,3.57
2022-10-07T06:20:36.151Z,3.20
2022-10-07T06:23:06.953Z,2.50
2022-10-07T06:25:35.420Z,2.50
2022-10-07T06:28:03.698Z,2.33
2022-10-07T06:30:33.645Z,2.93
2022-10-07T06:33:02.041Z,2.90
2022-10-07T06:35:30.199Z,2.60
2022-10-07T06:37:58.473Z,3.50
2022-10-07T06:40:26.879Z,3.97
2022-10-07T06:42:55.194Z,3.13
2022-10-07T06:45:23.374Z,3.17
2022-10-07T06:47:57.135Z,2.93
2022-10-07T06:50:25.305Z,3.07
2022-10-07T06:52:58.905Z,4.10
2022-10-07T06:55:27.462Z,2.70
2022-10-07T06:57:56.245Z,3.57
2022-10-07T07:00:25.640Z,2.10
2022-10-07T07:02:55.234Z,3.60
2022-10-07T07:05:23.445Z,3.33
2022-10-07T07:07:51.617Z,3.30
2022-10-07T07:10:19.819Z,4.83
2022-10-07T07:12:48.436Z,3.77
2022-10-07T07:15:17.827Z,3.40
2022-10-07T07:17:46.241Z,3.90
2022-10-07T07:20:16.269Z,3.80
2022-10-07T07:22:44.670Z,2.57
2022-10-07T07:25:13.047Z,4.40
2022-10-07T07:27:41.282Z,3.80
2022-10-07T07:30:10.032Z,4.93
2022-10-07T07:32:38.273Z,4.20
2022-10-07T07:35:06.930Z,3.73
2022-10-07T07:37:36.721Z,4.50
2022-10-07T07:40:05.206Z,3.23
2022-10-07T07:42:33.410Z,4.77
2022-10-07T07:45:01.630Z,4.70
2022-10-07T07:47:30.918Z,4.60
2022-10-07T07:49:59.113Z,4.53
2022-10-07T07:52:29.391Z,4.13
2022-10-07T07:54:59.223Z,3.97
2022-10-07T07:57:27.480Z,3.97
2022-10-07T07:59:55.736Z,3.80
2022-10-07T08:02:24.033Z,5.57
2022-10-07T08:04:53.852Z,5.60
2022-10-07T08:07:22.079Z,3.90
2022-10-07T08:09:50.934Z,4.60
2022-10-07T08:12:23.396Z,4.70
2022-10-07T08:14:52.123Z,5.70
2022-10-07T08:17:20.320Z,5.60
2022-10-07T08:19:49.575Z,3.50
2022-10-07T08:22:17.915Z,4.57
2022-10-07T08:24:46.970Z,3.80
2022-10-07T08:27:15.384Z,3.97
2022-10-07T08:29:46.062Z,6.37
2022-10-07T08:32:14.315Z,4.63
2022-10-07T08:34:42.518Z,2.80
2022-10-07T08:37:10.794Z,2.67
2022-10-07T08:39:38.982Z,4.80
2022-10-07T08:42:13.267Z,3.90
2022-10-07T08:44:42.175Z,2.10
2022-10-07T08:47:20.293Z,2.60
2022-10-07T08:49:57.194Z,3.40
2022-10-07T08:52:32.676Z,2.80
2022-10-07T08:55:01.501Z,2.53
2022-10-07T08:57:44.436Z,2.53
2022-10-07T09:00:17.469Z,2.80
2022-10-07T09:02:54.232Z,4.30
2022-10-07T09:05:24.115Z,2.93
2022-10-07T09:07:53.918Z,3.00
2022-10-07T09:10:30.085Z,3.47
2022-10-07T09:13:00.531Z,3.40
2022-10-07T09:15:35.085Z,2.70
2022-10-07T09:18:06.510Z,2.50
2022-10-07T09:20:37.743Z,2.73
2022-10-07T09:23:06.894Z,2.77
2022-10-07T09:25:41.250Z,4.13
2022-10-07T09:28:13.347Z,3.13
2022-10-07T09:30:42.403Z,2.40
2022-10-07T09:33:14.983Z,2.43
2022-10-07T09:35:47.178Z,2.60
2022-10-07T09:38:15.380Z,3.10
2022-10-07T09:40:58.503Z,2.37
2022-10-07T09:43:27.837Z,2.43
2022-10-07T09:45:57.139Z,2.37
2022-10-07T09:48:30.494Z,3.40
2022-10-07T09:51:16.607Z,2.70
2022-10-07T09:53:59.073Z,3.20
2022-10-07T09:56:40.478Z,2.80
2022-10-07T09:59:21.826Z,2.73
2022-10-07T10:01:51.244Z,2.50
2022-10-07T10:04:21.986Z,2.47
2022-10-07T10:06:50.626Z,2.13
2022-10-07T10:09:21.559Z,2.27
2022-10-07T10:12:02.167Z,2.50
2022-10-07T10:14:36.629Z,2.60
2022-10-07T10:17:05.548Z,2.30
2022-10-07T10:19:37.315Z,3.30
2022-10-07T10:22:05.856Z,2.97
2022-10-07T10:24:56.401Z,2.87
2022-10-07T10:27:26.354Z,2.53
2022-10-07T10:29:57.274Z,3.60
2022-10-07T10:32:50.371Z,2.60
2022-10-07T10:35:24.146Z,3.03
2022-10-07T10:38:02.958Z,3.10
2022-10-07T10:40:34.554Z,3.60
2022-10-07T10:43:10.167Z,3.73
2022-10-07T10:45:42.553Z,3.50
2022-10-07T10:48:19.214Z,2.50
2022-10-07T10:50:54.657Z,2.80
2022-10-07T10:53:29.399Z,5.60
2022-10-07T10:56:08.410Z,2.37
2022-10-07T10:58:42.463Z,2.97
2022-10-07T11:01:16.473Z,2.43
2022-10-07T11:03:58.607Z,3.17
2022-10-07T11:06:30.810Z,1.93
2022-10-07T11:09:00.544Z,2.80
2022-10-07T11:11:29.650Z,3.07
2022-10-07T11:14:00.084Z,3.97
2022-10-07T11:16:30.962Z,3.80
2022-10-07T11:19:01.443Z,2.33
2022-10-07T11:21:34.507Z,2.73
2022-10-07T11:24:04.582Z,2.40
2022-10-07T11:26:36.043Z,1.93
2022-10-07T11:29:11.797Z,3.23
2022-10-07T11:31:42.427Z,3.17
2022-10-07T11:34:19.653Z,2.27
2022-10-07T11:36:54.621Z,3.13
2022-10-07T11:39:23.813Z,2.60
2022-10-07T11:41:55.207Z,2.63
2022-10-07T11:44:26.703Z,2.83
2022-10-07T11:46:55.487Z,2.40
2022-10-07T11:49:24.944Z,3.07
2022-10-07T11:51:58.893Z,2.17
2022-10-07T11:54:28.475Z,3.63
2022-10-07T11:56:58.906Z,2.90
2022-10-07T11:59:33.805Z,2.53
2022-10-07T12:02:02.375Z,2.47
2022-10-07T12:04:38.185Z,2.70
2022-10-07T12:07:25.117Z,2.77
2022-10-07T12:10:09.655Z,2.10
2022-10-07T12:12:53.922Z,2.83
2022-10-07T12:15:26.741Z,3.20
2022-10-07T12:17:57.259Z,2.57
2022-10-07T12:20:45.075Z,2.07
2022-10-07T12:23:32.185Z,2.50
2022-10-07T12:26:03.184Z,3.97
2022-10-07T12:28:34.490Z,4.10
2022-10-07T12:31:03.655Z,4.10
2022-10-07T12:33:35.598Z,2.60
2022-10-07T12:36:18.817Z,2.03
2022-10-07T12:38:47.421Z,2.30
2022-10-07T12:41:26.626Z,1.70
2022-10-07T12:43:59.054Z,3.20
2022-10-07T12:46:31.374Z,2.40
2022-10-07T12:49:02.390Z,3.00
2022-10-07T12:51:39.328Z,2.03
2022-10-07T12:54:14.532Z,2.20
2022-10-07T12:56:45.979Z,3.10
2022-10-07T12:59:50.358Z,2.30
2022-10-07T13:02:34.484Z,2.30
2022-10-07T13:05:18.650Z,3.07
2022-10-07T13:08:09.888Z,3.50
2022-10-07T13:10:57.458Z,3.23
2022-10-07T13:13:31.611Z,2.80
2022-10-07T13:16:05.225Z,3.20
2022-10-07T13:18:40.039Z,3.23
2022-10-07T13:21:14.246Z,2.77
2022-10-07T13:23:50.162Z,2.70
2022-10-07T13:26:22.598Z,2.33
2022-10-07T13:28:54.597Z,3.03
2022-10-07T13:31:25.360Z,2.70
2022-10-07T13:33:55.367Z,2.10
2022-10-07T13:36:25.536Z,3.20
2022-10-07T13:39:12.446Z,3.20
2022-10-07T13:41:44.350Z,2.63
2022-10-07T13:44:16.287Z,2.37
2022-10-07T13:46:53.319Z,3.03
2022-10-07T13:49:26.121Z,2.10
2022-10-07T13:51:56.560Z,2.60
2022-10-07T13:54:25.993Z,2.50
2022-10-07T13:56:55.470Z,2.57
2022-10-07T13:59:26.396Z,3.30
2022-10-07T14:01:56.576Z,2.30
2022-10-07T14:04:28.468Z,2.60
2022-10-07T14:07:01.238Z,2.77
2022-10-07T14:09:37.376Z,2.50
2022-10-07T14:12:06.904Z,2.43
2022-10-07T14:14:38.285Z,2.40
2022-10-07T14:17:11.014Z,3.27
2022-10-07T14:19:40.467Z,2.90
2022-10-07T14:22:18.721Z,2.50
2022-10-07T14:24:53.959Z,2.00
2022-10-07T14:27:41.735Z,2.47
2022-10-07T14:30:56.165Z,1.97
2022-10-07T14:33:46.244Z,2.93
2022-10-07T14:36:16.343Z,2.83
2022-10-07T14:38:46.389Z,2.40
2022-10-07T14:41:17.355Z,3.43
2022-10-07T14:43:47.578Z,2.87
2022-10-07T14:46:19.687Z,2.43
2022-10-07T14:48:48.213Z,3.87
2022-10-07T14:51:20.024Z,2.20
2022-10-07T14:53:50.505Z,3.00
2022-10-07T14:56:22.375Z,1.83
2022-10-07T14:58:52.057Z,3.00
2022-10-07T15:01:22.645Z,1.90
2022-10-07T15:03:52.723Z,2.70
2022-10-07T15:06:21.818Z,1.80
2022-10-07T15:08:50.393Z,2.30
2022-10-07T15:11:20.882Z,2.63
2022-10-07T15:13:51.285Z,3.00
2022-10-07T15:16:20.369Z,2.70
2022-10-07T15:18:52.967Z,2.80
2022-10-07T15:21:21.890Z,2.90
2022-10-07T15:23:52.141Z,2.80
2022-10-07T15:26:24.046Z,2.17
2022-10-07T15:28:54.259Z,2.87
2022-10-07T15:31:24.206Z,2.23
2022-10-07T15:33:57.032Z,3.47
2022-10-07T15:36:25.904Z,2.10
2022-10-07T15:38:55.154Z,3.43
2022-10-07T15:41:34.174Z,2.57
2022-10-07T15:44:04.489Z,2.33
2022-10-07T15:46:33.880Z,3.27
2022-10-07T15:49:05.697Z,2.47
2022-10-07T15:51:36.202Z,2.70
2022-10-07T15:54:04.710Z,2.63
2022-10-07T15:56:32.986Z,2.13
2022-10-07T15:59:02.091Z,2.10
2022-10-07T16:01:32.830Z,2.53
2022-10-07T16:04:02.949Z,2.80
2022-10-07T16:06:34.005Z,2.10
2022-10-07T16:09:02.534Z,2.30
2022-10-07T16:11:32.963Z,2.37
2022-10-07T16:14:02.842Z,2.27
2022-10-07T16:16:32.741Z,2.77
2022-10-07T16:19:02.484Z,2.40
2022-10-07T16:21:33.866Z,2.63
2022-10-07T16:24:04.619Z,2.93
2022-10-07T16:26:35.881Z,1.57
2022-10-07T16:29:24.226Z,2.33
2022-10-07T16:31:58.807Z,3.03
2022-10-07T16:34:30.379Z,2.30
2022-10-07T16:37:00.991Z,2.20
2022-10-07T16:39:30.260Z,3.53
2022-10-07T16:41:59.664Z,3.60
2022-10-07T16:44:28.163Z,4.10
2022-10-07T16:46:58.007Z,3.43
2022-10-07T16:49:29.275Z,2.80
2022-10-07T16:51:57.790Z,3.57
2022-10-07T16:54:30.324Z,2.63
2022-10-07T16:56:59.709Z,4.13
2022-10-07T16:59:28.912Z,2.20
2022-10-07T17:02:02.294Z,2.07
2022-10-07T17:04:32.725Z,2.60
2022-10-07T17:07:01.977Z,2.80
2022-10-07T17:09:32.559Z,2.63
2022-10-07T17:12:00.853Z,2.10
2022-10-07T17:14:31.485Z,2.20
2022-10-07T17:17:00.461Z,2.30
2022-10-07T17:19:30.357Z,2.53
2022-10-07T17:21:59.652Z,2.70
2022-10-07T17:24:29.935Z,2.20
2022-10-07T17:26:59.611Z,2.40
2022-10-07T17:29:30.733Z,2.80
2022-10-07T17:31:59.952Z,3.67
2022-10-07T17:34:29.165Z,3.37
2022-10-07T17:36:59.236Z,3.47
2022-10-07T17:39:30.975Z,4.23
2022-10-07T17:42:00.624Z,4.33
2022-10-07T17:44:31.897Z,3.77
2022-10-07T17:47:06.103Z,4.10
2022-10-07T17:49:35.343Z,4.43
2022-10-07T17:52:04.560Z,4.70
2022-10-07T17:54:32.800Z,3.70
2022-10-07T17:57:04.313Z,3.00
2022-10-07T17:59:33.918Z,3.80
2022-10-07T18:02:02.173Z,5.27
2022-10-07T18:04:31.420Z,6.17
2022-10-07T18:07:00.688Z,5.60
2022-10-07T18:09:29.174Z,7.27
2022-10-07T18:12:15.406Z,6.97
2022-10-07T18:15:03.586Z,7.03
2022-10-07T18:17:32.806Z,7.83
2022-10-07T18:20:01.076Z,8.73
2022-10-07T18:22:29.243Z,8.97
2022-10-07T18:24:59.580Z,9.90
2022-10-07T18:27:28.904Z,7.63
2022-10-07T18:29:58.553Z,5.60
2022-10-07T18:32:27.987Z,18.67
2022-10-07T18:34:57.263Z,19.63
2022-10-07T18:37:26.533Z,6.93
2022-10-07T18:39:54.777Z,6.20
2022-10-07T18:42:24.106Z,6.60
2022-10-07T18:44:52.410Z,6.33
2022-10-07T18:47:23.221Z,6.80
2022-10-07T18:49:52.658Z,6.17
2022-10-07T18:52:21.135Z,6.80
2022-10-07T18:54:49.392Z,4.90
2022-10-07T18:57:19.627Z,4.87
2022-10-07T18:59:47.906Z,4.80
2022-10-07T19:02:17.789Z,4.73
2022-10-07T19:04:48.511Z,4.90
2022-10-07T19:07:18.046Z,4.77
2022-10-07T19:09:47.291Z,4.20
2022-10-07T19:12:29.616Z,4.40
2022-10-07T19:14:59.288Z,4.07
2022-10-07T19:17:28.141Z,4.00
2022-10-07T19:20:02.322Z,3.70
2022-10-07T19:22:30.720Z,3.57
2022-10-07T19:25:17.583Z,4.30
2022-10-07T19:27:46.941Z,4.20
2022-10-07T19:30:16.643Z,3.97
2022-10-07T19:32:44.997Z,3.70
2022-10-07T19:35:16.655Z,3.87
2022-10-07T19:37:45.386Z,4.93
2022-10-07T19:40:13.937Z,4.20
2022-10-07T19:42:43.860Z,3.90
2022-10-07T19:45:14.121Z,3.80
2022-10-07T19:47:48.211Z,4.07
2022-10-07T19:50:18.245Z,3.83
2022-10-07T19:52:47.827Z,4.80
2022-10-07T19:55:16.357Z,4.37
2022-10-07T19:57:45.917Z,3.57
2022-10-07T20:00:14.594Z,4.63
2022-10-07T20:02:43.846Z,3.80
2022-10-07T20:05:19.450Z,3.67
2022-10-07T20:07:48.999Z,3.70
2022-10-07T20:10:18.665Z,4.83
2022-10-07T20:12:47.891Z,3.63
2022-10-07T20:15:16.210Z,3.83
2022-10-07T20:17:46.144Z,3.80
2022-10-07T20:20:14.936Z,4.33
2022-10-07T20:22:48.551Z,4.50
2022-10-07T20:25:18.831Z,4.13
2022-10-07T20:27:49.116Z,3.90
2022-10-07T20:30:18.577Z,4.30
2022-10-07T20:32:47.081Z,3.63
2022-10-07T20:35:16.648Z,4.40
2022-10-07T20:37:46.311Z,3.53
2022-10-07T20:40:33.130Z,4.60
2022-10-07T20:43:03.228Z,4.50
2022-10-07T20:45:54.122Z,3.97
2022-10-07T20:48:23.425Z,4.10
2022-10-07T20:50:53.777Z,4.93
2022-10-07T20:53:23.421Z,4.03
2022-10-07T20:55:52.647Z,4.57
2022-10-07T20:58:21.864Z,3.10
2022-10-07T21:00:50.167Z,3.50
2022-10-07T21:03:19.692Z,3.17
2022-10-07T21:05:48.863Z,3.30
2022-10-07T21:08:18.637Z,2.60
2022-10-07T21:10:49.265Z,3.50
2022-10-07T21:13:18.696Z,2.87
2022-10-07T21:15:46.961Z,3.23
2022-10-07T21:18:17.299Z,2.60
2022-10-07T21:20:56.329Z,3.53
2022-10-07T21:23:25.362Z,2.90
2022-10-07T21:25:56.053Z,2.90
2022-10-07T21:28:25.427Z,3.63
2022-10-07T21:30:59.852Z,3.23
2022-10-07T21:33:30.536Z,2.87
2022-10-07T21:36:00.895Z,3.10
2022-10-07T21:38:31.850Z,2.50
2022-10-07T21:41:01.842Z,2.60
2022-10-07T21:43:30.130Z,2.83
2022-10-07T21:45:59.989Z,3.20
2022-10-07T21:48:29.465Z,3.27
2022-10-07T21:50:59.411Z,3.60
2022-10-07T21:53:28.669Z,3.93
2022-10-07T21:55:56.925Z,3.33
2022-10-07T21:58:27.941Z,2.90
2022-10-07T22:00:57.238Z,2.60
2022-10-07T22:03:25.761Z,3.23
2022-10-07T22:05:54.990Z,3.97
2022-10-07T22:08:35.207Z,2.90
2022-10-07T22:11:05.268Z,3.30
2022-10-07T22:13:35.756Z,3.20
2022-10-07T22:16:14.697Z,3.30
2022-10-07T22:18:43.650Z,3.00
2022-10-07T22:21:13.845Z,2.67
2022-10-07T22:23:42.155Z,3.63
2022-10-07T22:26:12.986Z,3.07
2022-10-07T22:28:43.298Z,2.67
2022-10-07T22:31:13.106Z,3.33
2022-10-07T22:33:42.211Z,2.97
2022-10-07T22:36:11.619Z,3.63
2022-10-07T22:38:40.831Z,2.57
2022-10-07T22:41:11.380Z,3.00
2022-10-07T22:43:44.696Z,3.43
2022-10-07T22:46:14.400Z,2.60
2022-10-07T22:48:43.496Z,2.83
2022-10-07T22:51:12.579Z,3.17
2022-10-07T22:53:47.699Z,2.97
2022-10-07T22:56:20.866Z,3.07
2022-10-07T22:58:54.475Z,3.20
2022-10-07T23:01:23.526Z,3.10
2022-10-07T23:03:53.562Z,2.43
2022-10-07T23:06:21.793Z,3.30
2022-10-07T23:08:50.281Z,3.50
2022-10-07T23:11:19.552Z,2.87
2022-10-07T23:13:47.781Z,3.10
2022-10-07T23:16:18.472Z,3.07
2022-10-07T23:18:47.798Z,2.40
2022-10-07T23:21:17.766Z,2.80
2022-10-07T23:23:47.239Z,3.30
2022-10-07T23:26:16.982Z,3.27
2022-10-07T23:28:45.296Z,3.40
2022-10-07T23:31:15.029Z,2.73
2022-10-07T23:33:44.686Z,2.67
2022-10-07T23:36:13.088Z,2.50
2022-10-07T23:38:44.717Z,3.10
2022-10-07T23:41:13.551Z,3.60
2022-10-07T23:43:41.886Z,2.63
2022-10-07T23:46:14.243Z,2.37
2022-10-07T23:48:43.234Z,2.17
2022-10-07T23:51:13.870Z,4.50
2022-10-07T23:53:42.229Z,2.57
2022-10-07T23:56:10.749Z,2.97
2022-10-07T23:58:39.019Z,3.13
